Aviation Digital Data Service (ADDS)

Output produced by METARs form (2106 UTC 24 March 2019)
found at http://www.aviationweather.gov/metar/data/
 
METAR text: MHTG 242100Z 02006KT 6000 FEW032 OVC200 27/09 Q1018 A3006 NOSIG
Conditions at: MHTG (TEGUCIGALPA/TON , HN) observed 2100 UTC 24 March 2019
Temperature: 27.0°C (81°F)
Dewpoint: 9.0°C (48°F) [RH = 32%]
Pressure (altimeter): 30.06 inches Hg (1018.0 mb)
Winds: from the NNE (20 degrees) at 7 MPH (6 knots; 3.1 m/s)
Visibility: 4 miles ( 6 km)
Ceiling: 20000 feet AGL
Clouds: few clouds at 3200 feet AGL
overcast cloud deck at 20000 feet AGL
Weather: no significant weather observed at this time

METAR text: MHTG 242000Z 36006KT 6000 FEW032 OVC200 26/10 Q1019 A3009 NOSIG
Conditions at: MHTG (TEGUCIGALPA/TON , HN) observed 2000 UTC 24 March 2019
Temperature: 26.0°C (79°F)
Dewpoint: 10.0°C (50°F) [RH = 37%]
Pressure (altimeter): 30.09 inches Hg (1019.0 mb)
Winds: from the N (360 degrees) at 7 MPH (6 knots; 3.1 m/s)
Visibility: 4 miles ( 6 km)
Ceiling: 20000 feet AGL
Clouds: few clouds at 3200 feet AGL
overcast cloud deck at 20000 feet AGL
Weather: no significant weather observed at this time

METAR text: MHTG 241900Z 36008KT 6000 SCT032 OVC200 26/09 Q1020 A3012 NOSIG
Conditions at: MHTG (TEGUCIGALPA/TON , HN) observed 1900 UTC 24 March 2019
Temperature: 26.0°C (79°F)
Dewpoint: 9.0°C (48°F) [RH = 34%]
Pressure (altimeter): 30.12 inches Hg (1020.0 mb)
Winds: from the N (360 degrees) at 9 MPH (8 knots; 4.1 m/s)
Visibility: 4 miles ( 6 km)
Ceiling: 20000 feet AGL
Clouds: scattered clouds at 3200 feet AGL
overcast cloud deck at 20000 feet AGL
Weather: no significant weather observed at this time

METAR text: MHTG 241800Z 07003KT 6000 FEW032 OVC200 25/10 Q1021 A3015 NOSIG
Conditions at: MHTG (TEGUCIGALPA/TON , HN) observed 1800 UTC 24 March 2019
Temperature: 25.0°C (77°F)
Dewpoint: 10.0°C (50°F) [RH = 39%]
Pressure (altimeter): 30.15 inches Hg (1021.0 mb)
Winds: from the ENE (70 degrees) at 3 MPH (3 knots; 1.5 m/s)
Visibility: 4 miles ( 6 km)
Ceiling: 20000 feet AGL
Clouds: few clouds at 3200 feet AGL
overcast cloud deck at 20000 feet AGL
Weather: no significant weather observed at this time

METAR text: MHTG 241700Z 36008KT 8000 4000W FU FEW032 OVC200 24/10 Q1022 A3018 NOSIG
Conditions at: MHTG (TEGUCIGALPA/TON , HN) observed 1700 UTC 24 March 2019
Temperature: 24.0°C (75°F)
Dewpoint: 10.0°C (50°F) [RH = 41%]
Pressure (altimeter): 30.18 inches Hg (1022.0 mb)
Winds: from the N (360 degrees) at 9 MPH (8 knots; 4.1 m/s)
Visibility: 5 miles ( 8 km)
Ceiling: 20000 feet AGL
Clouds: few clouds at 3200 feet AGL
overcast cloud deck at 20000 feet AGL
Weather: FU  (smoke)

METAR text: MHTG 241600Z 36007KT 8000 4000W FU FEW030 BKN200 21/12 Q1022 A3018 NOSIG
Conditions at: MHTG (TEGUCIGALPA/TON , HN) observed 1600 UTC 24 March 2019
Temperature: 21.0°C (70°F)
Dewpoint: 12.0°C (54°F) [RH = 56%]
Pressure (altimeter): 30.18 inches Hg (1022.0 mb)
Winds: from the N (360 degrees) at 8 MPH (7 knots; 3.6 m/s)
Visibility: 5 miles ( 8 km)
Ceiling: 20000 feet AGL
Clouds: few clouds at 3000 feet AGL
broken clouds at 20000 feet AGL
Weather: FU  (smoke)

METAR text: MHTG 241500Z COR 36006KT 6000 3000SW FU FEW028 BKN200 19/11 Q1022 A3018 BECMG 8000
Conditions at: MHTG (TEGUCIGALPA/TON , HN) observed 1500 UTC 24 March 2019
Temperature: 19.0°C (66°F)
Dewpoint: 11.0°C (52°F) [RH = 60%]
Pressure (altimeter): 30.18 inches Hg (1022.0 mb)
Winds: from the N (360 degrees) at 7 MPH (6 knots; 3.1 m/s)
Visibility: 4 miles ( 6 km)
Ceiling: 20000 feet AGL
Clouds: few clouds at 2800 feet AGL
broken clouds at 20000 feet AGL
Weather: FU  (smoke)

METAR text: MHTG 241400Z 36006KT 2000SW 5000N FU FEW028 OVC200 17/11 Q1022 A3018 NOSIG
Conditions at: MHTG (TEGUCIGALPA/TON , HN) observed 1400 UTC 24 March 2019
Temperature: 17.0°C (63°F)
Dewpoint: 11.0°C (52°F) [RH = 68%]
Pressure (altimeter): 30.18 inches Hg (1022.0 mb)
Winds: from the N (360 degrees) at 7 MPH (6 knots; 3.1 m/s)
Visibility: 1.24 miles (2.00 km)
Ceiling: 20000 feet AGL
Clouds: few clouds at 2800 feet AGL
overcast cloud deck at 20000 feet AGL
Weather: FU  (smoke)

METAR text: MHTG 241300Z 27004KT 1000S 4000N SCT028 BKN200 15/09 Q1022 A3018 NOSIG
Conditions at: MHTG (TEGUCIGALPA/TON , HN) observed 1300 UTC 24 March 2019
Temperature: 15.0°C (59°F)
Dewpoint: 9.0°C (48°F) [RH = 67%]
Pressure (altimeter): 30.18 inches Hg (1022.0 mb)
Winds: from the W (270 degrees) at 5 MPH (4 knots; 2.1 m/s)
Visibility: 0.62 miles (1.00 km)
Ceiling: 20000 feet AGL
Clouds: scattered clouds at 2800 feet AGL
broken clouds at 20000 feet AGL
Weather: no significant weather observed at this time

METAR text: MHTG 241200Z 00000KT 1000 S FU 4000 FEW024 14/09 Q1021 A3015 NOSIG
Conditions at: MHTG (TEGUCIGALPA/TON , HN) observed 1200 UTC 24 March 2019
Temperature: 14.0°C (57°F)
Dewpoint: 9.0°C (48°F) [RH = 72%]
Pressure (altimeter): 30.15 inches Hg (1021.0 mb)
Winds: calm
Visibility: 0.62 miles (1.00 km)
Ceiling: at least 12,000 feet AGL
Clouds: few clouds at 2400 feet AGL
Weather: FU  (smoke)

METAR text: MHTG 241100Z 27004KT 3000 SE FU 6000 FEW026 15/10 Q1021 3015 NOSIG
Conditions at: MHTG (TEGUCIGALPA/TON , HN) observed 1100 UTC 24 March 2019
Temperature: 15.0°C (59°F)
Dewpoint: 10.0°C (50°F) [RH = 72%]
Pressure (altimeter): 30.15 inches Hg (1021.0 mb)
Winds: from the W (270 degrees) at 5 MPH (4 knots; 2.1 m/s)
Visibility: 1.86 miles (2.99 km)
Ceiling: at least 12,000 feet AGL
Clouds: few clouds at 2600 feet AGL
Weather: FU  (smoke)

METAR text: MHTG 241000Z 03006KT 8000 FEW026 16/09 Q1020 A3012 NOSIG
Conditions at: MHTG (TEGUCIGALPA/TON , HN) observed 1000 UTC 24 March 2019
Temperature: 16.0°C (61°F)
Dewpoint: 9.0°C (48°F) [RH = 63%]
Pressure (altimeter): 30.12 inches Hg (1020.0 mb)
Winds: from the NNE (30 degrees) at 7 MPH (6 knots; 3.1 m/s)
Visibility: 5 miles ( 8 km)
Ceiling: at least 12,000 feet AGL
Clouds: few clouds at 2600 feet AGL
Weather: no significant weather observed at this time

METAR text: MHTG 240900Z 03004KT 8000 FEW026 16/09 Q1020 A3012 NOSIG
Conditions at: MHTG (TEGUCIGALPA/TON , HN) observed 0900 UTC 24 March 2019
Temperature: 16.0°C (61°F)
Dewpoint: 9.0°C (48°F) [RH = 63%]
Pressure (altimeter): 30.12 inches Hg (1020.0 mb)
Winds: from the NNE (30 degrees) at 5 MPH (4 knots; 2.1 m/s)
Visibility: 5 miles ( 8 km)
Ceiling: at least 12,000 feet AGL
Clouds: few clouds at 2600 feet AGL
Weather: no significant weather observed at this time

METAR text: MHTG 240800Z 36008KT 8000 FEW026 17/11 Q1021 A3015 NOSIG
Conditions at: MHTG (TEGUCIGALPA/TON , HN) observed 0800 UTC 24 March 2019
Temperature: 17.0°C (63°F)
Dewpoint: 11.0°C (52°F) [RH = 68%]
Pressure (altimeter): 30.15 inches Hg (1021.0 mb)
Winds: from the N (360 degrees) at 9 MPH (8 knots; 4.1 m/s)
Visibility: 5 miles ( 8 km)
Ceiling: at least 12,000 feet AGL
Clouds: few clouds at 2600 feet AGL
Weather: no significant weather observed at this time

METAR text: MHTG 240700Z 36006KT 8000 FEW026 17/11 Q1021 A3015 NOSIG
Conditions at: MHTG (TEGUCIGALPA/TON , HN) observed 0700 UTC 24 March 2019
Temperature: 17.0°C (63°F)
Dewpoint: 11.0°C (52°F) [RH = 68%]
Pressure (altimeter): 30.15 inches Hg (1021.0 mb)
Winds: from the N (360 degrees) at 7 MPH (6 knots; 3.1 m/s)
Visibility: 5 miles ( 8 km)
Ceiling: at least 12,000 feet AGL
Clouds: few clouds at 2600 feet AGL
Weather: no significant weather observed at this time

METAR text: MHTG 240600Z 36010KT 8000 FEW026 18/11 Q1022 A3018 NOSIG
Conditions at: MHTG (TEGUCIGALPA/TON , HN) observed 0600 UTC 24 March 2019
Temperature: 18.0°C (64°F)
Dewpoint: 11.0°C (52°F) [RH = 64%]
Pressure (altimeter): 30.18 inches Hg (1022.0 mb)
Winds: from the N (360 degrees) at 12 MPH (10 knots; 5.1 m/s)
Visibility: 5 miles ( 8 km)
Ceiling: at least 12,000 feet AGL
Clouds: few clouds at 2600 feet AGL
Weather: no significant weather observed at this time

METAR text: MHTG 240500Z 36010KT 8000 FEW026 18/11 Q1022 A3018 NOSIG
Conditions at: MHTG (TEGUCIGALPA/TON , HN) observed 0500 UTC 24 March 2019
Temperature: 18.0°C (64°F)
Dewpoint: 11.0°C (52°F) [RH = 64%]
Pressure (altimeter): 30.18 inches Hg (1022.0 mb)
Winds: from the N (360 degrees) at 12 MPH (10 knots; 5.1 m/s)
Visibility: 5 miles ( 8 km)
Ceiling: at least 12,000 feet AGL
Clouds: few clouds at 2600 feet AGL
Weather: no significant weather observed at this time

METAR text: MHTG 240400Z 36008KT 8000 FEW028 19/11 Q1022 A3018 NOSIG
Conditions at: MHTG (TEGUCIGALPA/TON , HN) observed 0400 UTC 24 March 2019
Temperature: 19.0°C (66°F)
Dewpoint: 11.0°C (52°F) [RH = 60%]
Pressure (altimeter): 30.18 inches Hg (1022.0 mb)
Winds: from the N (360 degrees) at 9 MPH (8 knots; 4.1 m/s)
Visibility: 5 miles ( 8 km)
Ceiling: at least 12,000 feet AGL
Clouds: few clouds at 2800 feet AGL
Weather: no significant weather observed at this time

METAR text: MHTG 240300Z 36010KT 8000 FEW028 20/10 Q1022 A3018 NOSIG
Conditions at: MHTG (TEGUCIGALPA/TON , HN) observed 0300 UTC 24 March 2019
Temperature: 20.0°C (68°F)
Dewpoint: 10.0°C (50°F) [RH = 53%]
Pressure (altimeter): 30.18 inches Hg (1022.0 mb)
Winds: from the N (360 degrees) at 12 MPH (10 knots; 5.1 m/s)
Visibility: 5 miles ( 8 km)
Ceiling: at least 12,000 feet AGL
Clouds: few clouds at 2800 feet AGL
Weather: no significant weather observed at this time

METAR text: MHTG 240200Z 35008KT 8000 FEW030 21/10 Q1021 A3015 NOSIG
Conditions at: MHTG (TEGUCIGALPA/TON , HN) observed 0200 UTC 24 March 2019
Temperature: 21.0°C (70°F)
Dewpoint: 10.0°C (50°F) [RH = 49%]
Pressure (altimeter): 30.15 inches Hg (1021.0 mb)
Winds: from the N (350 degrees) at 9 MPH (8 knots; 4.1 m/s)
Visibility: 5 miles ( 8 km)
Ceiling: at least 12,000 feet AGL
Clouds: few clouds at 3000 feet AGL
Weather: no significant weather observed at this time

METAR text: MHTG 240100Z 36012KT 8000 BKN032 23/10 Q1020 A3012 NOSIG
Conditions at: MHTG (TEGUCIGALPA/TON , HN) observed 0100 UTC 24 March 2019
Temperature: 23.0°C (73°F)
Dewpoint: 10.0°C (50°F) [RH = 44%]
Pressure (altimeter): 30.12 inches Hg (1020.0 mb)
Winds: from the N (360 degrees) at 14 MPH (12 knots; 6.2 m/s)
Visibility: 5 miles ( 8 km)
Ceiling: 3200 feet AGL
Clouds: broken clouds at 3200 feet AGL
Weather: no significant weather observed at this time

METAR text: MHTG 240000Z 36012KT 9999 FEW032 SCT090 24/10 Q1018 A3006 NOSIG
Conditions at: MHTG (TEGUCIGALPA/TON , HN) observed 0000 UTC 24 March 2019
Temperature: 24.0°C (75°F)
Dewpoint: 10.0°C (50°F) [RH = 41%]
Pressure (altimeter): 30.06 inches Hg (1018.0 mb)
Winds: from the N (360 degrees) at 14 MPH (12 knots; 6.2 m/s)
Visibility: 6 or more miles (10+ km)
Ceiling: at least 12,000 feet AGL
Clouds: few clouds at 3200 feet AGL
scattered clouds at 9000 feet AGL
Weather: no significant weather observed at this time

METAR text: MHTG 232300Z 36012KT 9999 FEW032 26/10 Q1018 A3006 NOSIG
Conditions at: MHTG (TEGUCIGALPA/TON , HN) observed 2300 UTC 23 March 2019
Temperature: 26.0°C (79°F)
Dewpoint: 10.0°C (50°F) [RH = 37%]
Pressure (altimeter): 30.06 inches Hg (1018.0 mb)
Winds: from the N (360 degrees) at 14 MPH (12 knots; 6.2 m/s)
Visibility: 6 or more miles (10+ km)
Ceiling: at least 12,000 feet AGL
Clouds: few clouds at 3200 feet AGL
Weather: no significant weather observed at this time

METAR text: MHTG 232200Z 36012KT 9999 FEW032 SCT250 27/10 Q1017 A3003 NOSIG
Conditions at: MHTG (TEGUCIGALPA/TON , HN) observed 2200 UTC 23 March 2019
Temperature: 27.0°C (81°F)
Dewpoint: 10.0°C (50°F) [RH = 34%]
Pressure (altimeter): 30.03 inches Hg (1017.0 mb)
Winds: from the N (360 degrees) at 14 MPH (12 knots; 6.2 m/s)
Visibility: 6 or more miles (10+ km)
Ceiling: at least 12,000 feet AGL
Clouds: few clouds at 3200 feet AGL
scattered clouds at 25000 feet AGL
Weather: no significant weather observed at this time

METAR text: MHTG 232100Z 03010KT 9999 FEW032 29/09 Q1018 A3006 NOSIG
Conditions at: MHTG (TEGUCIGALPA/TON , HN) observed 2100 UTC 23 March 2019
Temperature: 29.0°C (84°F)
Dewpoint: 9.0°C (48°F) [RH = 29%]
Pressure (altimeter): 30.06 inches Hg (1018.0 mb)
Winds: from the NNE (30 degrees) at 12 MPH (10 knots; 5.1 m/s)
Visibility: 6 or more miles (10+ km)
Ceiling: at least 12,000 feet AGL
Clouds: few clouds at 3200 feet AGL
Weather: no significant weather observed at this time

METAR text: MHTG 232000Z 36010KT 9999 FEW032 28/09 Q1018 A3006 NOSIG
Conditions at: MHTG (TEGUCIGALPA/TON , HN) observed 2000 UTC 23 March 2019
Temperature: 28.0°C (82°F)
Dewpoint: 9.0°C (48°F) [RH = 30%]
Pressure (altimeter): 30.06 inches Hg (1018.0 mb)
Winds: from the N (360 degrees) at 12 MPH (10 knots; 5.1 m/s)
Visibility: 6 or more miles (10+ km)
Ceiling: at least 12,000 feet AGL
Clouds: few clouds at 3200 feet AGL
Weather: no significant weather observed at this time

METAR text: MHTG 231900Z 36008KT 9999 FEW030 27/09 Q1019 A3009 NOSIG
Conditions at: MHTG (TEGUCIGALPA/TON , HN) observed 1900 UTC 23 March 2019
Temperature: 27.0°C (81°F)
Dewpoint: 9.0°C (48°F) [RH = 32%]
Pressure (altimeter): 30.09 inches Hg (1019.0 mb)
Winds: from the N (360 degrees) at 9 MPH (8 knots; 4.1 m/s)
Visibility: 6 or more miles (10+ km)
Ceiling: at least 12,000 feet AGL
Clouds: few clouds at 3000 feet AGL
Weather: no significant weather observed at this time

METAR text: MHTG 231800Z 02010KT 9999 FEW030 26/11 Q1021 A3015 NOSIG
Conditions at: MHTG (TEGUCIGALPA/TON , HN) observed 1800 UTC 23 March 2019
Temperature: 26.0°C (79°F)
Dewpoint: 11.0°C (52°F) [RH = 39%]
Pressure (altimeter): 30.15 inches Hg (1021.0 mb)
Winds: from the NNE (20 degrees) at 12 MPH (10 knots; 5.1 m/s)
Visibility: 6 or more miles (10+ km)
Ceiling: at least 12,000 feet AGL
Clouds: few clouds at 3000 feet AGL
Weather: no significant weather observed at this time

METAR text: MHTG 231700Z 03010KT 9999 FEW028 25/10 Q1022 A3018 NOSIG
Conditions at: MHTG (TEGUCIGALPA/TON , HN) observed 1700 UTC 23 March 2019
Temperature: 25.0°C (77°F)
Dewpoint: 10.0°C (50°F) [RH = 39%]
Pressure (altimeter): 30.18 inches Hg (1022.0 mb)
Winds: from the NNE (30 degrees) at 12 MPH (10 knots; 5.1 m/s)
Visibility: 6 or more miles (10+ km)
Ceiling: at least 12,000 feet AGL
Clouds: few clouds at 2800 feet AGL
Weather: no significant weather observed at this time

METAR text: MHTG 231600Z 02010KT 9999 FEW028 23/09 Q1022 A3018 NOSIG
Conditions at: MHTG (TEGUCIGALPA/TON , HN) observed 1600 UTC 23 March 2019
Temperature: 23.0°C (73°F)
Dewpoint: 9.0°C (48°F) [RH = 41%]
Pressure (altimeter): 30.18 inches Hg (1022.0 mb)
Winds: from the NNE (20 degrees) at 12 MPH (10 knots; 5.1 m/s)
Visibility: 6 or more miles (10+ km)
Ceiling: at least 12,000 feet AGL
Clouds: few clouds at 2800 feet AGL
Weather: no significant weather observed at this time

METAR text: MHTG 231500Z 02010KT 9999 FEW028 21/11 Q1022 A3018 NOSIG
Conditions at: MHTG (TEGUCIGALPA/TON , HN) observed 1500 UTC 23 March 2019
Temperature: 21.0°C (70°F)
Dewpoint: 11.0°C (52°F) [RH = 53%]
Pressure (altimeter): 30.18 inches Hg (1022.0 mb)
Winds: from the NNE (20 degrees) at 12 MPH (10 knots; 5.1 m/s)
Visibility: 6 or more miles (10+ km)
Ceiling: at least 12,000 feet AGL
Clouds: few clouds at 2800 feet AGL
Weather: no significant weather observed at this time

METAR text: MHTG 231400Z 36010KT 8000 FEW026 19/13 Q1022 A3008 NOSIG
Conditions at: MHTG (TEGUCIGALPA/TON , HN) observed 1400 UTC 23 March 2019
Temperature: 19.0°C (66°F)
Dewpoint: 13.0°C (55°F) [RH = 68%]
Pressure (altimeter): 30.18 inches Hg (1022.0 mb)
Winds: from the N (360 degrees) at 12 MPH (10 knots; 5.1 m/s)
Visibility: 5 miles ( 8 km)
Ceiling: at least 12,000 feet AGL
Clouds: few clouds at 2600 feet AGL
Weather: no significant weather observed at this time

METAR text: MHTG 231300Z 36008KT 8000 FEW006 16/13 Q1021 A3015 NOSIG
Conditions at: MHTG (TEGUCIGALPA/TON , HN) observed 1300 UTC 23 March 2019
Temperature: 16.0°C (61°F)
Dewpoint: 13.0°C (55°F) [RH = 82%]
Pressure (altimeter): 30.15 inches Hg (1021.0 mb)
Winds: from the N (360 degrees) at 9 MPH (8 knots; 4.1 m/s)
Visibility: 5 miles ( 8 km)
Ceiling: at least 12,000 feet AGL
Clouds: few clouds at 600 feet AGL
Weather: no significant weather observed at this time

METAR text: MHTG 231200Z 35014KT 8000 SCT028 16/13 Q1021 A3015 NOSIG
Conditions at: MHTG (TEGUCIGALPA/TON , HN) observed 1200 UTC 23 March 2019
Temperature: 16.0°C (61°F)
Dewpoint: 13.0°C (55°F) [RH = 82%]
Pressure (altimeter): 30.15 inches Hg (1021.0 mb)
Winds: from the N (350 degrees) at 16 MPH (14 knots; 7.2 m/s)
Visibility: 5 miles ( 8 km)
Ceiling: at least 12,000 feet AGL
Clouds: scattered clouds at 2800 feet AGL
Weather: no significant weather observed at this time

METAR text: MHTG 231100Z 36008KT 7000 SCT028 16/13 Q1020 A3012 NOSIG
Conditions at: MHTG (TEGUCIGALPA/TON , HN) observed 1100 UTC 23 March 2019
Temperature: 16.0°C (61°F)
Dewpoint: 13.0°C (55°F) [RH = 82%]
Pressure (altimeter): 30.12 inches Hg (1020.0 mb)
Winds: from the N (360 degrees) at 9 MPH (8 knots; 4.1 m/s)
Visibility: 4 miles ( 7 km)
Ceiling: at least 12,000 feet AGL
Clouds: scattered clouds at 2800 feet AGL
Weather: no significant weather observed at this time

METAR text: MHTG 231000Z 36004KT 7000 FEW028 16/13 Q1019 A3009 NOSIG
Conditions at: MHTG (TEGUCIGALPA/TON , HN) observed 1000 UTC 23 March 2019
Temperature: 16.0°C (61°F)
Dewpoint: 13.0°C (55°F) [RH = 82%]
Pressure (altimeter): 30.09 inches Hg (1019.0 mb)
Winds: from the N (360 degrees) at 5 MPH (4 knots; 2.1 m/s)
Visibility: 4 miles ( 7 km)
Ceiling: at least 12,000 feet AGL
Clouds: few clouds at 2800 feet AGL
Weather: no significant weather observed at this time

Forecast for: MHTG (TEGUCIGALPA/TON , HN)
Text: TAF MHTG 241625Z 2418/2518 02010KT 8000 SCT030TCU TX30/2421Z TN13/2512Z
Forecast period: 1800 UTC 24 March 2019 to 0300 UTC 25 March 2019
Forecast type: FROM: standard forecast or significant change
Winds: from the NNE (20 degrees) at 12 MPH (10 knots; 5.1 m/s)
Visibility: 5 miles (8 km)
Ceiling: at least 12,000 feet AGL
Clouds: scattered clouds at 3000 feet AGL
Weather: no significant weather forecast for this period
Text: BECMG 2503/2505 FEW026 SCT080
Forecast period: 0300 to 1000 UTC 25 March 2019
Forecast type: BECOMING: Conditions expected to become as follows by 0500 UTC 25 March 2019
Winds: from the NNE (20 degrees) at 12 MPH (10 knots; 5.1 m/s)
Visibility: 5 miles (8 km)
Ceiling: at least 12,000 feet AGL
Clouds: few clouds at 2600 feet AGL
scattered clouds at 8000 feet AGL
Weather: no significant weather forecast for this period
Text: BECMG 2510/2512 VRB02KT 4000 FU SCT028
Forecast period: 1000 to 1500 UTC 25 March 2019
Forecast type: BECOMING: Conditions expected to become as follows by 1200 UTC 25 March 2019
Winds: variable direction winds at 2 MPH (2 knots; 1.0 m/s)
Visibility: 2.49 miles (4.01 km)
Ceiling: at least 12,000 feet AGL
Clouds: scattered clouds at 2800 feet AGL
Weather: FU  (smoke)
Text: BECMG 2515/2517 02010KT 8000 FEW030 SCT080
Forecast period: 1500 to 1800 UTC 25 March 2019
Forecast type: BECOMING: Conditions expected to become as follows by 1700 UTC 25 March 2019
Winds: from the NNE (20 degrees) at 12 MPH (10 knots; 5.1 m/s)
Visibility: 5 miles (8 km)
Ceiling: at least 12,000 feet AGL
Clouds: few clouds at 3000 feet AGL
scattered clouds at 8000 feet AGL
Weather: FU  (smoke)